Time;durP1;ratioP1;P1;durP2;ratioP2;P2;SDS_P1;SDS_P2;PMS_P1;PMS_P2;Temp;Humidity;BMP_temperature;BMP_pressure;BME280_temperature;BME280_humidity;BME280_pressure;Samples;Min_cycle;Max_cycle;Signal;HPM_P1;HPM_P2
2023/06/20 00:00:36;;;;;;;6.82;5.55;;;;;;;-146.58;100.00;69501.63;5030007;28;20035;-67
2023/06/20 00:03:01;;;;;;;6.88;5.38;;;;;;;-146.58;100.00;69501.63;5028277;28;20895;-67
2023/06/20 00:05:27;;;;;;;15.55;6.32;;;;;;;-146.58;100.00;69501.63;5029824;28;20025;-67
2023/06/20 00:07:54;;;;;;;8.07;4.65;;;;;;;-146.58;100.00;69501.63;5029607;28;20017;-67
2023/06/20 00:10:20;;;;;;;7.35;5.07;;;;;;;-146.58;100.00;69501.63;5028795;28;20408;-67
2023/06/20 00:12:45;;;;;;;8.32;5.30;;;;;;;-146.58;100.00;69501.63;5029885;28;20022;-67
2023/06/20 00:15:10;;;;;;;10.95;6.30;;;;;;;-146.58;100.00;69501.63;5028458;28;20107;-67
2023/06/20 00:17:36;;;;;;;9.82;6.47;;;;;;;-146.58;100.00;69501.63;5029845;28;20021;-67
2023/06/20 00:20:04;;;;;;;9.32;5.53;;;;;;;-146.58;100.00;69501.63;5028479;28;20506;-67
2023/06/20 00:22:34;;;;;;;11.18;6.72;;;;;;;-146.58;100.00;69501.63;5029652;28;20022;-67
2023/06/20 00:25:00;;;;;;;10.52;6.13;;;;;;;-146.58;100.00;69501.63;5028408;28;20065;-67
2023/06/20 00:27:25;;;;;;;6.07;5.30;;;;;;;-146.58;100.00;69501.63;5029875;28;20680;-67
2023/06/20 00:29:51;;;;;;;8.65;5.93;;;;;;;-146.58;100.00;69501.63;5028002;28;20508;-68
2023/06/20 00:32:16;;;;;;;7.57;5.35;;;;;;;-146.58;100.00;69501.63;5029745;28;20044;-67
2023/06/20 00:34:41;;;;;;;7.85;6.50;;;;;;;-146.58;100.00;69501.63;5028445;28;20040;-67
2023/06/20 00:37:07;;;;;;;12.05;6.40;;;;;;;-146.58;100.00;69501.63;5029400;28;20029;-67
2023/06/20 00:39:32;;;;;;;12.75;6.78;;;;;;;-146.58;100.00;69501.63;5028092;28;20038;-67
2023/06/20 00:41:57;;;;;;;7.65;5.95;;;;;;;-146.58;100.00;69501.63;5029559;28;20473;-67
2023/06/20 00:44:23;;;;;;;6.70;5.20;;;;;;;-146.58;100.00;69501.63;5028042;28;20401;-67
2023/06/20 00:46:48;;;;;;;7.53;5.72;;;;;;;-146.58;100.00;69501.63;5029254;28;20029;-67
2023/06/20 00:49:14;;;;;;;10.90;7.70;;;;;;;-146.58;100.00;69501.63;5028448;28;20037;-67
2023/06/20 00:51:39;;;;;;;7.03;6.35;;;;;;;-146.58;100.00;69501.63;5029444;28;20029;-67
2023/06/20 00:54:05;;;;;;;8.05;5.57;;;;;;;-146.58;100.00;69501.63;5027802;28;20045;-67
2023/06/20 00:56:31;;;;;;;8.13;6.70;;;;;;;-146.58;100.00;69501.63;5029481;28;20044;-67
2023/06/20 00:58:56;;;;;;;9.30;6.85;;;;;;;-146.58;100.00;69501.63;5027747;28;20091;-67
2023/06/20 01:01:21;;;;;;;6.47;5.55;;;;;;;-146.58;100.00;69501.63;5029730;28;20066;-67
2023/06/20 01:03:49;;;;;;;12.07;7.47;;;;;;;-146.58;100.00;69501.63;5027820;28;20103;-67
2023/06/20 01:06:32;;;;;;;6.80;5.70;;;;;;;-146.58;100.00;69501.63;5029311;28;20021;-67
2023/06/20 01:09:20;;;;;;;9.75;6.55;;;;;;;-146.58;100.00;69501.63;5030298;28;20113;-67
2023/06/20 01:12:14;;;;;;;12.30;7.38;;;;;;;-146.58;100.00;69501.63;5032588;28;20479;-67
2023/06/20 01:15:09;;;;;;;7.78;6.57;;;;;;;-146.58;100.00;69501.63;5031341;28;20049;-66
2023/06/20 01:17:50;;;;;;;10.65;6.85;;;;;;;-146.58;100.00;69501.63;5033160;28;20021;-66
2023/06/20 01:20:25;;;;;;;8.15;7.35;;;;;;;-146.58;100.00;69501.63;5031695;28;20073;-66
2023/06/20 01:23:20;;;;;;;8.32;6.80;;;;;;;-146.58;100.00;69501.63;5032509;28;20029;-66
2023/06/20 01:26:09;;;;;;;10.60;6.60;;;;;;;-146.58;100.00;69501.63;5011322;28;20088;-66
2023/06/20 01:28:46;;;;;;;8.00;7.20;;;;;;;-146.58;100.00;69501.63;5011354;28;20034;-66
2023/06/20 01:31:15;;;;;;;15.30;8.00;;;;;;;-146.58;100.00;69501.63;5012807;28;20053;-67
2023/06/20 01:33:52;;;;;;;11.15;7.35;;;;;;;-146.58;100.00;69501.63;5011222;28;20072;-66
2023/06/20 01:36:20;;;;;;;12.63;6.65;;;;;;;-146.58;100.00;69501.63;5012711;28;20055;-66
2023/06/20 01:38:49;;;;;;;9.43;6.38;;;;;;;-146.58;100.00;69501.63;5009733;28;20042;-67
2023/06/20 01:41:20;;;;;;;12.32;9.13;;;;;;;-146.58;100.00;69501.63;5012927;28;20088;-67
2023/06/20 01:43:48;;;;;;;11.40;7.10;;;;;;;-146.58;100.00;69501.63;5010996;28;20061;-67
2023/06/20 01:46:16;;;;;;;11.43;9.30;;;;;;;-146.58;100.00;69501.63;5012687;28;20030;-67
2023/06/20 01:48:43;;;;;;;11.98;8.30;;;;;;;-146.58;100.00;69501.63;5011037;28;20050;-67
2023/06/20 01:51:09;;;;;;;11.25;8.52;;;;;;;-146.58;100.00;69501.63;5010913;28;20029;-67
2023/06/20 01:53:35;;;;;;;10.88;8.32;;;;;;;-146.58;100.00;69501.63;5011196;28;20132;-69
2023/06/20 01:56:04;;;;;;;11.82;8.30;;;;;;;-146.58;100.00;69501.63;5012449;28;20061;-70
2023/06/20 01:58:34;;;;;;;11.55;8.10;;;;;;;-146.58;100.00;69501.63;5010608;28;20115;-67
2023/06/20 02:01:01;;;;;;;10.60;8.00;;;;;;;-146.58;100.00;69501.63;5012061;28;20033;-67
2023/06/20 02:03:28;;;;;;;10.50;7.47;;;;;;;-146.58;100.00;69501.63;5010855;28;20048;-67
2023/06/20 02:05:57;;;;;;;10.00;8.32;;;;;;;-146.58;100.00;69501.63;5011639;28;20036;-67
2023/06/20 02:08:24;;;;;;;10.18;7.38;;;;;;;-146.58;100.00;69501.63;5010701;28;20053;-68
2023/06/20 02:10:50;;;;;;;11.57;8.67;;;;;;;-146.58;100.00;69501.63;5012098;28;20068;-68
2023/06/20 02:13:16;;;;;;;10.50;9.27;;;;;;;-146.58;100.00;69501.63;5010503;28;20759;-68
2023/06/20 02:15:42;;;;;;;8.55;6.60;;;;;;;-146.58;100.00;69501.63;5012232;28;20018;-68
2023/06/20 02:18:08;;;;;;;11.05;6.78;;;;;;;-146.58;100.00;69501.63;5010656;28;20029;-68
2023/06/20 02:20:34;;;;;;;15.82;8.45;;;;;;;-146.58;100.00;69501.63;5010645;28;20030;-68
2023/06/20 02:22:59;;;;;;;13.93;9.05;;;;;;;-146.58;100.00;69501.63;5010249;28;20100;-68
2023/06/20 02:25:34;;;;;;;9.70;8.45;;;;;;;-146.58;100.00;69501.63;5011943;28;20022;-66
2023/06/20 02:28:00;;;;;;;13.93;7.85;;;;;;;-146.58;100.00;69501.63;5010001;28;20033;-66
2023/06/20 02:30:30;;;;;;;10.60;7.80;;;;;;;-146.58;100.00;69501.63;5011890;28;20786;-65
2023/06/20 02:32:57;;;;;;;10.77;8.50;;;;;;;-146.58;100.00;69501.63;5011623;28;20034;-66
2023/06/20 02:35:24;;;;;;;8.73;7.85;;;;;;;-146.58;100.00;69501.63;5028525;28;20046;-66
2023/06/20 02:37:53;;;;;;;16.58;9.32;;;;;;;-146.58;100.00;69501.63;5031400;28;20034;-66
2023/06/20 02:40:24;;;;;;;11.18;8.50;;;;;;;-146.58;100.00;69501.63;5030175;28;20118;-66
2023/06/20 02:42:50;;;;;;;12.63;9.20;;;;;;;-146.58;100.00;69501.63;5030348;28;20025;-66
2023/06/20 02:45:16;;;;;;;12.25;9.18;;;;;;;-146.58;100.00;69501.63;5029815;28;20566;-66
2023/06/20 02:48:00;;;;;;;10.40;8.52;;;;;;;-146.58;100.00;69501.63;5031398;28;20108;-66
2023/06/20 02:50:32;;;;;;;22.05;11.40;;;;;;;-146.58;100.00;69501.63;5029535;28;20045;-67
2023/06/20 02:53:38;;;;;;;10.38;8.27;;;;;;;-146.58;100.00;69501.63;5029619;28;20044;-67
2023/06/20 02:56:09;;;;;;;11.48;8.07;;;;;;;-146.58;100.00;69501.63;5031028;28;20059;-67
2023/06/20 02:58:37;;;;;;;9.77;8.80;;;;;;;-146.58;100.00;69501.63;5029047;28;20045;-67
2023/06/20 03:01:03;;;;;;;16.15;10.13;;;;;;;-146.58;100.00;69501.63;5030662;28;20022;-67
2023/06/20 03:03:45;;;;;;;12.05;9.85;;;;;;;-146.58;100.00;69501.63;5029039;28;20459;-67
2023/06/20 03:06:14;;;;;;;10.38;8.55;;;;;;;-146.58;100.00;69501.63;5030548;28;20043;-66
2023/06/20 03:08:43;;;;;;;16.75;11.50;;;;;;;-146.58;100.00;69501.63;5025926;28;20037;-66
2023/06/20 03:11:09;;;;;;;10.00;8.30;;;;;;;-146.58;100.00;69501.63;5030964;28;20029;-68
2023/06/20 03:13:34;;;;;;;12.80;10.80;;;;;;;-146.58;100.00;69501.63;5029180;28;20037;-67
2023/06/20 03:15:59;;;;;;;14.40;9.77;;;;;;;-146.58;100.00;69501.63;5030667;28;20028;-67
2023/06/20 03:18:25;;;;;;;11.60;9.40;;;;;;;-146.58;100.00;69501.63;5029294;28;20519;-67
2023/06/20 03:20:52;;;;;;;9.15;8.00;;;;;;;-146.58;100.00;69501.63;5030206;28;20036;-67
2023/06/20 03:23:17;;;;;;;14.57;11.30;;;;;;;-146.58;100.00;69501.63;5025831;28;21068;-67
2023/06/20 03:25:43;;;;;;;17.73;8.95;;;;;;;-146.58;100.00;69501.63;5009794;28;20033;-67
2023/06/20 03:28:09;;;;;;;11.95;8.70;;;;;;;-146.58;100.00;69501.63;5009071;28;20021;-67
2023/06/20 03:30:34;;;;;;;16.15;10.65;;;;;;;-146.58;100.00;69501.63;5010679;28;20117;-67
2023/06/20 03:33:00;;;;;;;14.02;10.30;;;;;;;-146.58;100.00;69501.63;5008990;28;20067;-68
2023/06/20 03:35:25;;;;;;;12.68;9.38;;;;;;;-146.58;100.00;69501.63;5010638;28;20354;-68
2023/06/20 03:37:50;;;;;;;13.52;8.93;;;;;;;-146.58;100.00;69501.63;5010469;28;20049;-67
2023/06/20 03:40:16;;;;;;;10.80;9.70;;;;;;;-146.58;100.00;69501.63;5009510;28;20107;-67
2023/06/20 03:42:42;;;;;;;14.15;9.63;;;;;;;-146.58;100.00;69501.63;5010280;28;20033;-67
2023/06/20 03:45:08;;;;;;;13.57;9.95;;;;;;;-146.58;100.00;69501.63;5009186;28;20492;-67
2023/06/20 03:47:33;;;;;;;12.85;9.38;;;;;;;-146.58;100.00;69501.63;5010610;28;20068;-65
2023/06/20 03:49:58;;;;;;;10.05;8.88;;;;;;;-146.58;100.00;69501.63;5008011;28;20041;-66
2023/06/20 03:52:24;;;;;;;13.45;9.77;;;;;;;-146.58;100.00;69501.63;5010520;28;20026;-68
2023/06/20 03:54:49;;;;;;;10.90;9.38;;;;;;;-146.58;100.00;69501.63;5008764;28;20069;-68
2023/06/20 03:57:15;;;;;;;15.48;11.85;;;;;;;-146.58;100.00;69501.63;5009703;28;20017;-68
2023/06/20 03:59:40;;;;;;;11.00;9.10;;;;;;;-146.58;100.00;69501.63;5023472;28;20168;-67
2023/06/20 04:02:06;;;;;;;10.68;9.70;;;;;;;-146.58;100.00;69501.63;5029925;28;20481;-69
2023/06/20 04:04:32;;;;;;;12.32;10.80;;;;;;;-146.58;100.00;69501.63;5022357;28;20050;-69
2023/06/20 04:06:57;;;;;;;18.58;9.63;;;;;;;-146.58;100.00;69501.63;5009943;28;20109;-68
2023/06/20 04:09:26;;;;;;;11.55;8.43;;;;;;;-146.58;100.00;69501.63;5008964;28;20038;-66
2023/06/20 04:11:53;;;;;;;11.88;9.52;;;;;;;-146.58;100.00;69501.63;5009681;28;20022;-70
2023/06/20 04:14:18;;;;;;;11.65;9.30;;;;;;;-146.58;100.00;69501.63;5008745;28;20041;-70
2023/06/20 04:16:52;;;;;;;12.43;10.68;;;;;;;-146.58;100.00;69501.63;5010059;28;20381;-64
2023/06/20 04:19:18;;;;;;;13.18;8.32;;;;;;;-146.58;100.00;69501.63;5008873;28;20042;-63
2023/06/20 04:21:44;;;;;;;11.50;9.82;;;;;;;-146.58;100.00;69501.63;5009469;28;20033;-64
2023/06/20 04:24:09;;;;;;;13.13;9.40;;;;;;;-146.58;100.00;69501.63;5008512;28;20074;-65
2023/06/20 04:26:36;;;;;;;15.82;10.68;;;;;;;-146.58;100.00;69501.63;5009346;28;20033;-65
2023/06/20 04:29:01;;;;;;;11.40;10.38;;;;;;;-146.58;100.00;69501.63;5015807;28;20416;-64
2023/06/20 04:31:27;;;;;;;12.85;11.60;;;;;;;-146.58;100.00;69501.63;5029661;28;20037;-65
2023/06/20 04:33:54;;;;;;;15.63;11.25;;;;;;;-146.58;100.00;69501.63;5027913;28;20037;-64
2023/06/20 04:36:19;;;;;;;12.88;9.80;;;;;;;-146.58;100.00;69501.63;5029918;28;20053;-64
2023/06/20 04:38:45;;;;;;;16.45;10.98;;;;;;;-146.58;100.00;69501.63;5028283;28;20408;-65
2023/06/20 04:41:10;;;;;;;11.77;9.63;;;;;;;-146.58;100.00;69501.63;5029596;28;20041;-64
2023/06/20 04:43:36;;;;;;;14.20;10.65;;;;;;;-146.58;100.00;69501.63;5030245;28;20095;-65
2023/06/20 04:46:04;;;;;;;12.10;10.82;;;;;;;-146.58;100.00;69501.63;5033281;28;20028;-64
2023/06/20 04:48:30;;;;;;;12.98;10.52;;;;;;;-146.58;100.00;69501.63;5031774;28;20037;-64
2023/06/20 04:50:56;;;;;;;13.57;9.20;;;;;;;-146.58;100.00;69501.63;5033354;28;20051;-64
2023/06/20 04:53:22;;;;;;;28.48;10.90;;;;;;;-146.58;100.00;69501.63;5032086;28;20475;-65
2023/06/20 04:55:48;;;;;;;11.43;9.68;;;;;;;-146.58;100.00;69501.63;5031609;28;20105;-64
2023/06/20 04:58:14;;;;;;;14.40;8.70;;;;;;;-146.58;100.00;69501.63;5031992;28;20082;-65
2023/06/20 05:00:39;;;;;;;9.50;8.40;;;;;;;-146.58;100.00;69501.63;5033321;28;20028;-65
2023/06/20 05:03:05;;;;;;;12.52;9.60;;;;;;;-146.58;100.00;69501.63;5025297;28;20050;-65
2023/06/20 05:05:31;;;;;;;12.88;8.73;;;;;;;-146.58;100.00;69501.63;5004949;28;20060;-65
2023/06/20 05:07:56;;;;;;;13.70;9.38;;;;;;;-146.58;100.00;69501.63;5007986;28;20099;-63
2023/06/20 05:10:22;;;;;;;11.45;9.30;;;;;;;-146.58;100.00;69501.63;5030601;28;20480;-65
2023/06/20 05:12:49;;;;;;;14.60;10.10;;;;;;;-146.58;100.00;69501.63;5031929;28;20456;-65
2023/06/20 05:15:14;;;;;;;14.23;10.40;;;;;;;-146.58;100.00;69501.63;5031720;28;20041;-65
2023/06/20 05:17:40;;;;;;;10.20;9.20;;;;;;;-146.58;100.00;69501.63;5032840;28;20033;-65
2023/06/20 05:20:06;;;;;;;11.45;10.35;;;;;;;-146.58;100.00;69501.63;5031426;28;20033;-65
2023/06/20 05:22:33;;;;;;;12.25;11.05;;;;;;;-146.58;100.00;69501.63;5032591;28;20044;-65
2023/06/20 05:24:59;;;;;;;16.25;10.50;;;;;;;-146.58;100.00;69501.63;5030350;28;20107;-65
2023/06/20 05:27:24;;;;;;;11.27;10.05;;;;;;;-146.58;100.00;69501.63;5032404;28;20029;-65
2023/06/20 05:29:49;;;;;;;11.85;10.68;;;;;;;-146.58;100.00;69501.63;5029890;28;20046;-65
2023/06/20 05:32:15;;;;;;;18.17;11.07;;;;;;;-146.58;100.00;69501.63;5032260;28;20017;-65
2023/06/20 05:34:40;;;;;;;17.25;11.13;;;;;;;-146.58;100.00;69501.63;5031407;28;20041;-65
2023/06/20 05:37:05;;;;;;;12.40;11.00;;;;;;;-146.58;100.00;69501.63;5032635;28;20028;-64
2023/06/20 05:39:31;;;;;;;11.23;10.07;;;;;;;-146.58;100.00;69501.63;5030910;28;20038;-65
2023/06/20 05:41:56;;;;;;;14.40;10.63;;;;;;;-146.58;100.00;69501.63;5031057;28;20469;-65
2023/06/20 05:44:22;;;;;;;14.63;10.75;;;;;;;-146.58;100.00;69501.63;5031170;28;20034;-65
2023/06/20 05:46:47;;;;;;;11.63;9.77;;;;;;;-146.58;100.00;69501.63;5031783;28;20029;-65
2023/06/20 05:49:14;;;;;;;14.35;11.52;;;;;;;-146.58;100.00;69501.63;5031047;28;20070;-65
2023/06/20 05:51:40;;;;;;;11.63;10.52;;;;;;;-146.58;100.00;69501.63;5032552;28;20037;-65
2023/06/20 05:54:07;;;;;;;11.70;10.50;;;;;;;-146.58;100.00;69501.63;5030297;28;20029;-65
2023/06/20 05:56:32;;;;;;;11.55;9.38;;;;;;;-146.58;100.00;69501.63;5031994;28;20075;-65
2023/06/20 05:58:58;;;;;;;12.18;10.85;;;;;;;-146.58;100.00;69501.63;5030540;28;20045;-65
2023/06/20 06:01:23;;;;;;;10.82;9.82;;;;;;;-146.58;100.00;69501.63;5031017;28;20032;-65
2023/06/20 06:03:48;;;;;;;10.35;9.23;;;;;;;-146.58;100.00;69501.63;5029971;28;20048;-64
2023/06/20 06:06:14;;;;;;;12.98;10.20;;;;;;;-146.58;100.00;69501.63;5029253;28;20033;-65
2023/06/20 06:08:40;;;;;;;12.48;9.60;;;;;;;-146.58;100.00;69501.63;5029328;28;20044;-65
2023/06/20 06:11:07;;;;;;;14.18;9.45;;;;;;;-146.58;100.00;69501.63;5031313;28;20140;-65
2023/06/20 06:13:33;;;;;;;17.60;9.30;;;;;;;-146.58;100.00;69501.63;5030341;28;20033;-65
2023/06/20 06:15:58;;;;;;;13.70;10.80;;;;;;;-146.58;100.00;69501.63;5031637;28;20025;-65
2023/06/20 06:18:24;;;;;;;16.55;11.63;;;;;;;-146.58;100.00;69501.63;5030087;28;20453;-65
2023/06/20 06:20:49;;;;;;;12.77;10.07;;;;;;;-146.58;100.00;69501.63;5031692;28;20056;-65
2023/06/20 06:23:14;;;;;;;9.90;8.95;;;;;;;-146.58;100.00;69501.63;5028046;28;20022;-65
2023/06/20 06:25:40;;;;;;;9.80;8.85;;;;;;;-146.58;100.00;69501.63;5011406;28;20030;-65
2023/06/20 06:28:05;;;;;;;10.18;8.07;;;;;;;-146.58;100.00;69501.63;5009986;28;20017;-65
2023/06/20 06:30:33;;;;;;;9.90;8.90;;;;;;;-146.58;100.00;69501.63;5011871;28;20036;-65
2023/06/20 06:33:01;;;;;;;13.45;9.98;;;;;;;-146.58;100.00;69501.63;5011394;28;20026;-65
2023/06/20 06:35:30;;;;;;;14.88;9.65;;;;;;;-146.58;100.00;69501.63;5030367;28;20500;-65
2023/06/20 06:37:56;;;;;;;10.13;9.25;;;;;;;-146.58;100.00;69501.63;5027758;28;20488;-65
2023/06/20 06:40:22;;;;;;;11.68;9.50;;;;;;;-146.58;100.00;69501.63;5029422;28;20044;-64
2023/06/20 06:42:47;;;;;;;12.88;9.73;;;;;;;-146.58;100.00;69501.63;5031025;28;20033;-64
2023/06/20 06:45:13;;;;;;;11.20;9.60;;;;;;;-146.58;100.00;69501.63;5029779;28;20045;-65
2023/06/20 06:47:38;;;;;;;10.77;9.73;;;;;;;-146.58;100.00;69501.63;5030801;28;20025;-65
2023/06/20 06:50:04;;;;;;;11.25;8.63;;;;;;;-146.58;100.00;69501.63;5029712;28;20038;-64
2023/06/20 06:52:34;;;;;;;9.80;8.90;;;;;;;-146.58;100.00;69501.63;5031311;28;20053;-64
2023/06/20 06:55:00;;;;;;;9.95;8.95;;;;;;;-146.58;100.00;69501.63;5029255;28;20033;-65
2023/06/20 06:57:25;;;;;;;9.80;7.13;;;;;;;-146.58;100.00;69501.63;5027636;28;20491;-64
2023/06/20 06:59:50;;;;;;;7.90;7.10;;;;;;;-146.58;100.00;69501.63;5029320;28;20582;-65
2023/06/20 07:02:16;;;;;;;8.18;7.38;;;;;;;-146.58;100.00;69501.63;5030173;28;20065;-65
2023/06/20 07:04:41;;;;;;;7.15;6.45;;;;;;;-146.58;100.00;69501.63;5029693;28;20052;-65
2023/06/20 07:07:06;;;;;;;12.07;7.95;;;;;;;-146.58;100.00;69501.63;5030142;28;20101;-65
2023/06/20 07:09:32;;;;;;;8.25;7.30;;;;;;;-146.58;100.00;69501.63;5029130;28;20487;-65
2023/06/20 07:11:57;;;;;;;8.75;7.25;;;;;;;-146.58;100.00;69501.63;5030737;28;20021;-65
2023/06/20 07:14:23;;;;;;;9.77;8.88;;;;;;;-146.58;100.00;69501.63;5029347;28;20545;-65
2023/06/20 07:16:48;;;;;;;8.32;6.57;;;;;;;-146.58;100.00;69501.63;5030364;28;20400;-65
2023/06/20 07:19:13;;;;;;;10.02;8.23;;;;;;;-146.58;100.00;69501.63;5029331;28;20041;-65
2023/06/20 07:21:39;;;;;;;10.23;8.63;;;;;;;-146.58;100.00;69501.63;5030765;28;20029;-65
2023/06/20 07:24:04;;;;;;;11.95;8.35;;;;;;;-146.58;100.00;69501.63;5028794;28;20076;-65
2023/06/20 07:26:30;;;;;;;12.27;7.78;;;;;;;-146.58;100.00;69501.63;5029309;28;20558;-65
2023/06/20 07:28:55;;;;;;;9.35;7.90;;;;;;;-146.58;100.00;69501.63;5029094;28;20532;-65
2023/06/20 07:31:20;;;;;;;8.77;7.28;;;;;;;-146.58;100.00;69501.63;5030525;28;20079;-65
2023/06/20 07:33:46;;;;;;;12.95;8.13;;;;;;;-146.58;100.00;69501.63;5029037;28;20038;-65
2023/06/20 07:36:12;;;;;;;14.45;9.88;;;;;;;-146.58;100.00;69501.63;5030713;28;20037;-65
2023/06/20 07:38:37;;;;;;;10.40;8.40;;;;;;;-146.58;100.00;69501.63;5028657;28;20037;-65
2023/06/20 07:41:03;;;;;;;9.52;6.97;;;;;;;-146.58;100.00;69501.63;5030224;28;20025;-65
2023/06/20 07:43:28;;;;;;;11.60;7.38;;;;;;;-146.58;100.00;69501.63;5029079;28;20104;-65
2023/06/20 07:45:54;;;;;;;9.75;8.40;;;;;;;-146.58;100.00;69501.63;5029587;28;20025;-65
2023/06/20 07:48:19;;;;;;;13.15;8.88;;;;;;;-146.58;100.00;69501.63;5021946;28;20088;-65
2023/06/20 07:50:44;;;;;;;8.75;7.82;;;;;;;-146.58;100.00;69501.63;5009961;28;20028;-65
2023/06/20 07:53:10;;;;;;;10.55;8.23;;;;;;;-146.58;100.00;69501.63;5009032;28;20033;-65
2023/06/20 07:55:36;;;;;;;12.77;9.35;;;;;;;-146.58;100.00;69501.63;5010527;28;20634;-66
2023/06/20 07:58:01;;;;;;;10.07;8.75;;;;;;;-146.58;100.00;69501.63;5008628;28;20392;-66
2023/06/20 08:00:28;;;;;;;10.45;7.15;;;;;;;-146.58;100.00;69501.63;5010281;28;20018;-65
2023/06/20 08:02:53;;;;;;;10.65;7.60;;;;;;;-146.58;100.00;69501.63;5010126;28;20561;-65
2023/06/20 08:05:18;;;;;;;11.60;8.15;;;;;;;-146.58;100.00;69501.63;5009079;28;20042;-66
2023/06/20 08:07:44;;;;;;;8.07;7.10;;;;;;;-146.58;100.00;69501.63;5009843;28;20030;-65
2023/06/20 08:10:10;;;;;;;10.40;8.75;;;;;;;-146.58;100.00;69501.63;5009003;28;20038;-64
2023/06/20 08:12:36;;;;;;;8.10;7.00;;;;;;;-146.58;100.00;69501.63;5010630;28;20033;-66
2023/06/20 08:15:01;;;;;;;9.00;8.02;;;;;;;-146.58;100.00;69501.63;5008462;28;20540;-66
2023/06/20 08:17:27;;;;;;;10.55;7.55;;;;;;;-146.58;100.00;69501.63;5012028;28;20034;-65
2023/06/20 08:19:52;;;;;;;10.50;9.20;;;;;;;-146.58;100.00;69501.63;5012842;28;20108;-66
2023/06/20 08:22:17;;;;;;;8.70;7.63;;;;;;;-146.58;100.00;69501.63;5014075;28;20033;-64
2023/06/20 08:24:43;;;;;;;8.93;7.05;;;;;;;-146.58;100.00;69501.63;5012775;28;20042;-65
2023/06/20 08:27:08;;;;;;;15.05;8.75;;;;;;;-146.58;100.00;69501.63;5014265;28;20109;-65
2023/06/20 08:29:34;;;;;;;10.20;7.53;;;;;;;-146.58;100.00;69501.63;5012754;28;20038;-65
2023/06/20 08:32:00;;;;;;;9.55;7.88;;;;;;;-146.58;100.00;69501.63;5013953;28;20101;-66
2023/06/20 08:34:25;;;;;;;7.60;6.85;;;;;;;-146.58;100.00;69501.63;5012948;28;20053;-65
2023/06/20 08:36:50;;;;;;;8.55;7.53;;;;;;;-146.58;100.00;69501.63;5013783;28;20045;-66
2023/06/20 08:39:17;;;;;;;8.15;6.70;;;;;;;-146.58;100.00;69501.63;5012405;28;20502;-66
2023/06/20 08:41:43;;;;;;;9.60;7.60;;;;;;;-146.58;100.00;69501.63;5013996;28;20420;-65
2023/06/20 08:44:08;;;;;;;8.50;6.57;;;;;;;-146.58;100.00;69501.63;5012800;28;20037;-65
2023/06/20 08:46:34;;;;;;;12.00;5.60;;;;;;;-146.58;100.00;69501.63;5032607;28;20028;-66
2023/06/20 08:48:59;;;;;;;7.95;6.47;;;;;;;-146.58;100.00;69501.63;5031855;28;20021;-66
2023/06/20 08:51:27;;;;;;;9.10;5.63;;;;;;;-146.58;100.00;69501.63;5033794;28;20018;-66
2023/06/20 08:53:54;;;;;;;6.90;5.45;;;;;;;-146.58;100.00;69501.63;5032922;28;20029;-66
2023/06/20 08:56:20;;;;;;;8.75;5.63;;;;;;;-146.58;100.00;69501.63;5032151;28;20059;-66
2023/06/20 08:58:46;;;;;;;5.35;4.85;;;;;;;-146.58;100.00;69501.63;5033332;28;20075;-66
2023/06/20 09:01:11;;;;;;;6.10;5.55;;;;;;;-146.58;100.00;69501.63;5031699;28;20552;-65
2023/06/20 09:03:37;;;;;;;7.07;6.47;;;;;;;-146.58;100.00;69501.63;5033293;28;20187;-65
2023/06/20 09:06:03;;;;;;;6.28;5.68;;;;;;;-146.58;100.00;69501.63;5031415;28;20099;-65
2023/06/20 09:08:43;;;;;;;5.40;4.85;;;;;;;-146.58;100.00;69501.63;5032818;28;20022;-65
2023/06/20 09:11:10;;;;;;;7.72;5.80;;;;;;;-146.58;100.00;69501.63;5030747;28;20123;-65
2023/06/20 09:13:36;;;;;;;6.45;5.10;;;;;;;-146.58;100.00;69501.63;5033323;28;20024;-65
2023/06/20 09:16:05;;;;;;;5.72;4.68;;;;;;;-146.58;100.00;69501.63;5031247;28;20427;-66
2023/06/20 09:18:33;;;;;;;6.78;6.18;;;;;;;-146.58;100.00;69501.63;5033229;28;20037;-66
2023/06/20 09:20:58;;;;;;;6.63;5.10;;;;;;;-146.58;100.00;69501.63;5031395;28;20404;-66
2023/06/20 09:23:30;;;;;;;13.30;4.93;;;;;;;-146.58;100.00;69501.63;5028734;28;20021;-66
2023/06/20 09:25:57;;;;;;;5.25;4.78;;;;;;;-146.58;100.00;69501.63;5031176;28;20041;-66
2023/06/20 09:28:22;;;;;;;5.57;5.07;;;;;;;-146.58;100.00;69501.63;5030661;28;20034;-66
2023/06/20 09:30:48;;;;;;;6.30;5.10;;;;;;;-146.58;100.00;69501.63;5032210;28;20048;-66
2023/06/20 09:33:14;;;;;;;7.38;6.60;;;;;;;-146.58;100.00;69501.63;5031398;28;20075;-65
2023/06/20 09:35:40;;;;;;;30.20;7.75;;;;;;;-146.58;100.00;69501.63;5032808;28;20091;-65
2023/06/20 09:38:05;;;;;;;9.25;5.32;;;;;;;-146.58;100.00;69501.63;5030752;28;20550;-65
2023/06/20 09:40:31;;;;;;;6.68;5.55;;;;;;;-146.58;100.00;69501.63;5032757;28;20068;-65
2023/06/20 09:42:57;;;;;;;21.10;5.78;;;;;;;-146.58;100.00;69501.63;5032298;28;20384;-66
2023/06/20 09:45:23;;;;;;;9.23;6.05;;;;;;;-146.58;100.00;69501.63;5029428;28;20191;-66
2023/06/20 09:47:48;;;;;;;6.85;6.22;;;;;;;-146.58;100.00;69501.63;5032221;28;20105;-66
2023/06/20 09:50:19;;;;;;;8.10;5.88;;;;;;;-146.58;100.00;69501.63;5031068;28;20120;-66
2023/06/20 09:53:16;;;;;;;6.55;5.03;;;;;;;-146.58;100.00;69501.63;5030618;28;20048;-66
2023/06/20 09:55:42;;;;;;;7.53;6.22;;;;;;;-146.58;100.00;69501.63;5011530;28;20038;-65
2023/06/20 09:58:10;;;;;;;7.35;5.72;;;;;;;-146.58;100.00;69501.63;5011362;28;20021;-66
2023/06/20 10:00:37;;;;;;;8.18;7.07;;;;;;;-146.58;100.00;69501.63;5012430;28;20102;-66
2023/06/20 10:03:07;;;;;;;6.93;5.07;;;;;;;-146.58;100.00;69501.63;5010873;28;20064;-66
2023/06/20 10:05:33;;;;;;;10.43;6.10;;;;;;;-146.58;100.00;69501.63;5012300;28;20033;-67
2023/06/20 10:07:59;;;;;;;5.38;4.50;;;;;;;-146.58;100.00;69501.63;5011817;28;20480;-66
2023/06/20 10:10:25;;;;;;;6.70;5.10;;;;;;;-146.58;100.00;69501.63;5011083;28;20046;-66
2023/06/20 10:12:50;;;;;;;5.53;5.03;;;;;;;-146.58;100.00;69501.63;5010147;28;20489;-66
2023/06/20 10:15:16;;;;;;;6.60;4.35;;;;;;;-146.58;100.00;69501.63;5008243;28;20045;-65
2023/06/20 10:17:43;;;;;;;5.03;4.53;;;;;;;-146.58;100.00;69501.63;5011911;28;20374;-66
2023/06/20 10:20:41;;;;;;;6.75;4.75;;;;;;;-146.58;100.00;69501.63;5009590;28;20072;-65
2023/06/20 10:23:08;;;;;;;;;;;;;;;-146.58;100.00;69501.63;4995542;28;20021;-65
2023/06/20 10:25:34;;;;;;;;;;;;;;;-146.58;100.00;69501.63;5011113;28;19910;-65
2023/06/20 10:28:03;;;;;;;8.63;5.82;;;;;;;-146.58;100.00;69501.63;5010611;28;19914;-66
2023/06/20 10:30:46;;;;;;;7.88;5.85;;;;;;;-146.58;100.00;69501.63;5016637;28;20207;-65
2023/06/20 10:33:13;;;;;;;7.40;5.65;;;;;;;-146.58;100.00;69501.63;5012430;28;20477;-65
2023/06/20 10:36:06;;;;;;;7.38;5.07;;;;;;;-146.58;100.00;69501.63;5030602;28;20125;-66
2023/06/20 10:38:42;;;;;;;6.03;5.43;;;;;;;-146.58;100.00;69501.63;5027308;28;20037;-65
2023/06/20 10:41:33;;;;;;;5.22;4.82;;;;;;;-146.58;100.00;69501.63;5029505;28;20112;-65
2023/06/20 10:44:00;;;;;;;5.22;4.72;;;;;;;-146.58;100.00;69501.63;5020129;28;20042;-65
2023/06/20 10:46:43;;;;;;;6.38;5.63;;;;;;;-146.58;100.00;69501.63;5010852;28;20028;-66
2023/06/20 10:49:10;;;;;;;5.15;4.65;;;;;;;-146.58;100.00;69501.63;5009606;28;20045;-65
2023/06/20 10:51:45;;;;;;;5.90;5.25;;;;;;;-146.58;100.00;69501.63;5011031;28;20172;-65
2023/06/20 10:54:12;;;;;;;6.97;4.78;;;;;;;-146.58;100.00;69501.63;5009819;28;20049;-65
2023/06/20 10:56:38;;;;;;;8.07;5.37;;;;;;;-146.58;100.00;69501.63;5011385;28;20022;-65
2023/06/20 10:59:18;;;;;;;11.13;6.10;;;;;;;-146.58;100.00;69501.63;5009294;28;20046;-66
2023/06/20 11:01:43;;;;;;;6.43;5.47;;;;;;;-146.58;100.00;69501.63;5007418;28;20175;-65
2023/06/20 11:04:10;;;;;;;11.13;5.20;;;;;;;-146.58;100.00;69501.63;5008066;28;20137;-66
2023/06/20 11:06:36;;;;;;;8.93;5.65;;;;;;;-146.58;100.00;69501.63;5010623;28;20380;-66